createdAt,value
2019-04-04T00:00:51.116Z,32.33
2019-04-04T00:03:39.776Z,24.80
2019-04-04T00:06:29.046Z,24.40
2019-04-04T00:09:18.512Z,23.35
2019-04-04T00:12:08.064Z,22.25
2019-04-04T00:14:58.391Z,22.55
2019-04-04T00:17:47.806Z,20.37
2019-04-04T00:20:37.230Z,23.73
2019-04-04T00:23:26.027Z,17.40
2019-04-04T00:26:15.359Z,17.12
2019-04-04T00:29:04.490Z,16.75
2019-04-04T00:31:53.702Z,22.15
2019-04-04T00:34:42.367Z,16.60
2019-04-04T00:37:31.463Z,14.00
2019-04-04T00:40:20.684Z,15.03
2019-04-04T00:43:09.993Z,13.05
2019-04-04T00:46:00.755Z,18.45
2019-04-04T00:48:49.938Z,14.80
2019-04-04T00:51:39.662Z,17.00
2019-04-04T00:54:29.186Z,17.37
2019-04-04T00:57:18.863Z,16.20
2019-04-04T01:00:09.784Z,14.18
2019-04-04T01:02:58.971Z,12.90
2019-04-04T01:05:47.893Z,16.73
2019-04-04T01:08:38.860Z,14.75
2019-04-04T01:11:27.065Z,13.65
2019-04-04T01:14:16.404Z,14.87
2019-04-04T01:17:05.913Z,12.05
2019-04-04T01:19:55.274Z,11.00
2019-04-04T01:22:44.110Z,11.97
2019-04-04T01:25:33.500Z,16.50
2019-04-04T01:28:23.158Z,12.37
2019-04-04T01:31:14.618Z,14.87
2019-04-04T01:34:03.053Z,12.53
2019-04-04T01:36:56.161Z,12.30
2019-04-04T01:39:43.284Z,11.90
2019-04-04T01:42:32.142Z,12.35
2019-04-04T01:45:21.670Z,10.60
2019-04-04T01:48:10.754Z,10.35
2019-04-04T01:51:00.310Z,11.28
2019-04-04T01:53:49.980Z,11.40
2019-04-04T01:56:39.565Z,10.50
2019-04-04T01:59:28.583Z,10.93
2019-04-04T02:02:18.617Z,10.98
2019-04-04T02:05:08.802Z,12.45
2019-04-04T02:08:00.554Z,10.48
2019-04-04T02:10:47.956Z,10.95
2019-04-04T02:13:36.890Z,10.88
2019-04-04T02:16:26.103Z,11.05
2019-04-04T02:19:15.200Z,10.63
2019-04-04T02:22:05.199Z,11.88
2019-04-04T02:24:54.927Z,13.58
2019-04-04T02:27:43.873Z,11.73
2019-04-04T02:30:33.258Z,11.75
2019-04-04T02:33:21.838Z,11.57
2019-04-04T02:36:16.246Z,11.75
2019-04-04T02:39:12.528Z,11.60
2019-04-04T02:42:01.901Z,11.83
2019-04-04T02:44:51.373Z,12.85
2019-04-04T02:47:40.447Z,13.40
2019-04-04T02:50:34.408Z,17.98
2019-04-04T02:53:20.635Z,15.80
2019-04-04T02:56:10.404Z,13.53
2019-04-04T02:58:59.456Z,14.55
2019-04-04T03:01:48.849Z,15.50
2019-04-04T03:04:37.707Z,15.65
2019-04-04T03:07:29.843Z,15.40
2019-04-04T03:10:18.525Z,15.40
2019-04-04T03:13:07.567Z,13.62
2019-04-04T03:15:56.933Z,13.62
2019-04-04T03:18:45.698Z,14.68
2019-04-04T03:21:35.051Z,15.45
2019-04-04T03:24:24.035Z,15.70
2019-04-04T03:27:12.680Z,14.93
2019-04-04T03:30:01.721Z,19.70
2019-04-04T03:32:54.557Z,16.23
2019-04-04T03:35:42.007Z,16.50
2019-04-04T03:38:31.037Z,16.80
2019-04-04T03:41:20.557Z,15.60
2019-04-04T03:44:09.638Z,14.70
2019-04-04T03:46:58.580Z,15.20
2019-04-04T03:49:47.443Z,19.45
2019-04-04T03:52:36.507Z,15.58
2019-04-04T03:55:27.861Z,16.27
2019-04-04T03:58:17.193Z,18.70
2019-04-04T04:01:06.775Z,18.37
2019-04-04T04:03:56.193Z,16.60
2019-04-04T04:06:45.415Z,18.52
2019-04-04T04:09:34.746Z,18.98
2019-04-04T04:12:24.401Z,18.82
2019-04-04T04:15:13.408Z,17.50
2019-04-04T04:18:02.804Z,16.80
2019-04-04T04:20:52.265Z,18.67
2019-04-04T04:23:40.987Z,16.52
2019-04-04T04:26:29.897Z,16.90
2019-04-04T04:29:20.300Z,15.55
2019-04-04T04:32:09.639Z,14.70
2019-04-04T04:34:58.232Z,15.40
2019-04-04T04:37:46.971Z,14.58
2019-04-04T04:40:36.316Z,14.70
2019-04-04T04:43:25.807Z,14.65
2019-04-04T04:46:17.830Z,15.83
2019-04-04T04:49:05.503Z,15.63
2019-04-04T04:51:54.839Z,15.75
2019-04-04T04:54:44.151Z,16.15
2019-04-04T04:57:36.633Z,15.95
2019-04-04T05:00:27.411Z,17.15
2019-04-04T05:03:14.819Z,16.35
2019-04-04T05:06:03.967Z,15.95
2019-04-04T05:08:52.886Z,16.37
2019-04-04T05:11:42.287Z,16.32
2019-04-04T05:14:31.956Z,17.43
2019-04-04T05:17:21.339Z,17.60
2019-04-04T05:20:11.151Z,16.57
2019-04-04T05:23:00.601Z,17.17
2019-04-04T05:25:53.961Z,17.53
2019-04-04T05:28:42.108Z,18.23
2019-04-04T05:31:32.196Z,17.15
2019-04-04T05:34:21.085Z,18.40
2019-04-04T05:37:10.630Z,17.75
2019-04-04T05:39:59.836Z,19.17
2019-04-04T05:42:48.944Z,17.55
2019-04-04T05:45:37.630Z,18.95
2019-04-04T05:48:29.071Z,17.00
2019-04-04T05:54:07.516Z,18.20
2019-04-04T05:56:56.673Z,18.27
2019-04-04T05:59:46.000Z,18.80
2019-04-04T06:02:34.887Z,19.20
2019-04-04T06:05:26.891Z,17.95
2019-04-04T06:08:15.157Z,18.65
2019-04-04T06:11:04.293Z,19.75
2019-04-04T06:13:53.549Z,18.90
2019-04-04T06:16:42.649Z,18.17
2019-04-04T06:19:31.783Z,18.80
2019-04-04T06:22:21.190Z,18.90
2019-04-04T06:25:11.824Z,17.62
2019-04-04T06:28:01.656Z,18.20
2019-04-04T06:30:53.426Z,18.37
2019-04-04T06:33:41.239Z,19.05
2019-04-04T06:36:30.507Z,18.42
2019-04-04T06:39:19.411Z,18.20
2019-04-04T06:42:11.258Z,18.30
2019-04-04T06:44:59.516Z,17.60
2019-04-04T06:47:48.411Z,16.90
2019-04-04T06:50:39.990Z,17.10
2019-04-04T06:53:28.195Z,15.43
2019-04-04T06:56:17.538Z,14.57
2019-04-04T06:59:07.020Z,14.38
2019-04-04T07:01:56.186Z,14.80
2019-04-04T07:04:45.536Z,13.88
2019-04-04T07:07:35.448Z,14.60
2019-04-04T07:10:24.702Z,14.28
2019-04-04T07:13:21.710Z,13.58
2019-04-04T07:16:07.780Z,15.65
2019-04-04T07:18:56.066Z,12.97
2019-04-04T07:21:45.167Z,14.00
2019-04-04T07:24:34.195Z,13.93
2019-04-04T07:27:23.715Z,13.60
2019-04-04T07:33:02.971Z,12.90
2019-04-04T07:35:52.387Z,12.78
2019-04-04T07:38:42.015Z,13.05
2019-04-04T07:41:30.782Z,12.10
2019-04-04T07:44:21.156Z,12.18
2019-04-04T07:47:11.160Z,12.53
2019-04-04T07:49:59.680Z,12.13
2019-04-04T07:52:49.075Z,11.45
2019-04-04T07:55:40.133Z,10.58
2019-04-04T07:58:29.663Z,11.68
2019-04-04T08:01:18.722Z,9.65
2019-04-04T08:04:08.213Z,10.10
2019-04-04T08:06:57.789Z,11.38
2019-04-04T08:09:47.307Z,9.63
2019-04-04T08:12:36.940Z,10.75
2019-04-04T08:15:26.001Z,11.15
2019-04-04T08:18:15.475Z,11.80
2019-04-04T08:21:05.836Z,11.55
2019-04-04T08:23:55.443Z,11.40
2019-04-04T08:26:44.953Z,12.78
2019-04-04T08:29:34.303Z,11.63
2019-04-04T08:32:23.872Z,11.48
2019-04-04T08:35:13.484Z,11.33
2019-04-04T08:38:02.927Z,11.15
2019-04-04T08:40:51.979Z,10.10
2019-04-04T08:43:41.489Z,11.75
2019-04-04T08:46:30.541Z,11.73
2019-04-04T08:57:45.961Z,10.80
2019-04-04T09:00:35.009Z,11.15
2019-04-04T09:03:24.299Z,10.53
2019-04-04T09:06:12.798Z,11.20
2019-04-04T09:09:02.095Z,9.90
2019-04-04T09:11:50.954Z,12.07
2019-04-04T09:14:41.278Z,12.50
2019-04-04T09:17:30.336Z,10.65
2019-04-04T09:20:18.916Z,10.30
2019-04-04T09:23:08.369Z,11.90
2019-04-04T09:26:05.392Z,11.35
2019-04-04T09:28:49.164Z,11.12
2019-04-04T09:31:38.532Z,12.18
2019-04-04T09:34:28.012Z,11.55
2019-04-04T09:37:17.589Z,11.93
2019-04-04T09:40:08.213Z,11.80
2019-04-04T09:42:57.773Z,11.22
2019-04-04T09:45:47.016Z,11.88
2019-04-04T09:48:36.571Z,11.88
2019-04-04T09:51:25.564Z,13.08
2019-04-04T09:54:15.051Z,11.60
2019-04-04T09:57:03.587Z,11.45
2019-04-04T09:59:52.248Z,11.65
2019-04-04T10:02:42.243Z,12.15
2019-04-04T10:05:31.543Z,11.45
2019-04-04T10:08:20.469Z,11.20
2019-04-04T10:11:09.951Z,11.30
2019-04-04T10:13:59.213Z,11.85
2019-04-04T10:16:48.093Z,9.98
2019-04-04T10:19:37.137Z,11.93
2019-04-04T10:22:26.412Z,11.50
2019-04-04T10:25:15.566Z,12.20
2019-04-04T10:28:04.646Z,11.10
2019-04-04T10:30:54.233Z,10.68
2019-04-04T10:33:43.633Z,10.05
2019-04-04T10:36:32.708Z,10.48
2019-04-04T10:39:28.804Z,9.45
2019-04-04T10:42:12.469Z,9.55
2019-04-04T10:45:02.576Z,11.05
2019-04-04T10:47:51.363Z,11.03
2019-04-04T10:50:40.091Z,10.23
2019-04-04T10:53:29.385Z,10.72
2019-04-04T10:56:19.065Z,10.90
2019-04-04T10:59:08.030Z,10.48
2019-04-04T11:02:00.684Z,9.90
2019-04-04T11:04:48.415Z,10.95
2019-04-04T11:07:37.041Z,12.18
2019-04-04T11:10:26.336Z,9.75
2019-04-04T11:13:15.706Z,10.23
2019-04-04T14:21:25.457Z,12.95
2019-04-04T14:24:14.629Z,12.70
2019-04-04T14:27:03.934Z,12.63
2019-04-04T14:29:55.308Z,14.75
2019-04-04T14:32:43.644Z,14.03
2019-04-04T14:35:33.392Z,14.90
2019-04-04T14:38:22.582Z,17.27
2019-04-04T14:41:12.029Z,15.10
2019-04-04T14:44:01.261Z,13.78
2019-04-04T14:46:49.762Z,13.22
2019-04-04T14:49:39.069Z,13.38
2019-04-04T14:52:28.063Z,15.72
2019-04-04T14:55:17.973Z,17.25
2019-04-04T14:58:07.680Z,17.00
2019-04-04T15:00:56.769Z,16.45
2019-04-04T15:03:45.528Z,18.95
2019-04-04T15:06:34.378Z,21.45
2019-04-04T15:09:23.760Z,18.90
2019-04-04T15:12:13.069Z,21.17
2019-04-04T15:15:02.190Z,19.15
2019-04-04T15:17:51.122Z,18.45
2019-04-04T15:20:39.804Z,19.12
2019-04-04T15:23:28.663Z,17.80
2019-04-04T15:26:18.241Z,18.45
2019-04-04T15:29:07.167Z,16.20
2019-04-04T15:31:56.228Z,18.45
2019-04-04T15:34:45.245Z,17.52
2019-04-04T15:37:34.152Z,16.52
2019-04-04T15:40:23.361Z,17.67
2019-04-04T15:43:12.534Z,15.40
2019-04-04T15:46:01.900Z,17.27
2019-04-04T15:48:50.691Z,17.07
2019-04-04T15:51:39.616Z,17.25
2019-04-04T15:54:29.318Z,17.60
2019-04-04T15:57:18.659Z,15.43
2019-04-04T16:00:09.783Z,17.07
2019-04-04T16:02:58.466Z,17.80
2019-04-04T16:05:47.607Z,22.48
2019-04-04T16:08:36.550Z,19.73
2019-04-04T16:11:25.937Z,17.75
2019-04-04T16:14:15.102Z,19.20
2019-04-04T16:17:04.462Z,18.20
2019-04-04T16:19:54.155Z,19.90
2019-04-04T16:22:43.127Z,18.52
2019-04-04T16:25:32.597Z,18.55
2019-04-04T16:28:21.585Z,18.62
2019-04-04T16:31:10.925Z,17.60
2019-04-04T16:33:59.864Z,21.45
2019-04-04T16:36:49.360Z,18.48
2019-04-04T16:39:38.427Z,22.07
2019-04-04T16:42:27.371Z,17.92
2019-04-04T16:45:16.989Z,18.60
2019-04-04T16:48:05.759Z,17.05
2019-04-04T16:50:55.204Z,17.57
2019-04-04T16:53:44.259Z,14.50
2019-04-04T16:56:33.942Z,15.50
2019-04-04T16:59:23.212Z,13.32
2019-04-04T17:02:12.792Z,14.73
2019-04-04T17:05:01.846Z,17.82
2019-04-04T17:07:51.339Z,11.73
2019-04-04T17:10:40.469Z,21.02
2019-04-04T17:13:29.946Z,16.95
2019-04-04T17:16:21.332Z,23.12
2019-04-04T17:19:10.072Z,12.55
2019-04-04T17:21:58.731Z,15.15
2019-04-04T17:24:47.972Z,10.95
2019-04-04T17:27:39.260Z,15.53
2019-04-04T17:30:28.842Z,12.63
2019-04-04T17:33:17.629Z,18.67
2019-04-04T17:36:06.478Z,17.73
2019-04-04T17:38:56.054Z,13.83
2019-04-04T17:41:45.934Z,13.30
2019-04-04T17:44:34.498Z,11.33
2019-04-04T17:47:24.094Z,12.70
2019-04-04T17:50:18.413Z,15.75
2019-04-04T17:53:06.449Z,14.73
2019-04-04T17:55:56.291Z,11.57
2019-04-04T17:58:45.790Z,11.25
2019-04-04T18:01:35.435Z,12.30
2019-04-04T18:04:26.524Z,11.03
2019-04-04T18:07:15.402Z,22.95
2019-04-04T18:10:06.669Z,15.98
2019-04-04T18:12:55.994Z,11.30
2019-04-04T18:15:45.464Z,14.75
2019-04-04T18:18:34.409Z,12.30
2019-04-04T18:21:23.908Z,12.03
2019-04-04T18:24:13.287Z,12.10
2019-04-04T18:27:02.748Z,11.55
2019-04-04T18:29:52.094Z,12.58
2019-04-04T18:32:41.697Z,13.55
2019-04-04T18:35:30.229Z,14.75
2019-04-04T18:38:19.515Z,12.37
2019-04-04T18:41:08.480Z,18.73
2019-04-04T18:43:57.596Z,12.80
2019-04-04T18:46:47.017Z,17.05
2019-04-04T18:49:35.770Z,11.18
2019-04-04T18:52:25.347Z,13.05
2019-04-04T18:55:19.853Z,12.00
2019-04-04T18:58:04.609Z,12.65
2019-04-04T19:00:53.707Z,14.05
2019-04-04T19:03:43.555Z,14.05
2019-04-04T19:06:33.042Z,14.73
2019-04-04T19:09:22.108Z,13.53
2019-04-04T19:12:11.066Z,18.80
2019-04-04T19:14:59.952Z,17.82
2019-04-04T19:17:49.491Z,15.05
2019-04-04T19:20:38.359Z,16.85
2019-04-04T19:23:27.443Z,15.18
2019-04-04T19:26:16.346Z,24.02
2019-04-04T19:29:05.157Z,16.40
2019-04-04T19:31:54.612Z,15.63
2019-04-04T19:34:43.848Z,21.12
2019-04-04T19:37:32.644Z,15.10
2019-04-04T19:40:21.377Z,16.37
2019-04-04T19:43:17.892Z,16.17
2019-04-04T19:46:01.244Z,17.43
2019-04-04T19:48:50.545Z,18.77
2019-04-04T19:51:39.704Z,16.57
2019-04-04T19:54:29.115Z,17.12
2019-04-04T19:57:18.451Z,24.45
2019-04-04T20:00:10.068Z,19.65
2019-04-04T20:02:59.343Z,20.82
2019-04-04T20:05:48.500Z,22.40
2019-04-04T20:08:38.102Z,19.37
2019-04-04T20:11:27.215Z,19.35
2019-04-04T20:14:16.112Z,33.95
2019-04-04T20:17:05.687Z,21.10
2019-04-04T20:19:54.532Z,19.27
2019-04-04T20:22:43.514Z,18.37
2019-04-04T20:25:32.568Z,33.40
2019-04-04T20:28:21.942Z,25.27
2019-04-04T20:31:11.354Z,19.50
2019-04-04T20:34:01.918Z,23.97
2019-04-04T20:36:50.639Z,24.43
2019-04-04T20:39:40.357Z,21.97
2019-04-04T20:42:30.142Z,30.83
2019-04-04T20:45:19.259Z,29.73
2019-04-04T20:48:08.693Z,31.65
2019-04-04T20:50:58.667Z,21.30
2019-04-04T20:53:47.432Z,23.40
2019-04-04T20:56:36.674Z,40.20
2019-04-04T20:59:28.025Z,25.73
2019-04-04T21:02:16.821Z,29.23
2019-04-04T21:05:08.090Z,27.17
2019-04-04T21:07:57.247Z,33.85
2019-04-04T21:10:46.819Z,24.82
2019-04-04T21:13:36.400Z,27.60
2019-04-04T21:16:25.685Z,29.80
2019-04-04T21:19:14.943Z,31.45
2019-04-04T21:22:04.354Z,24.85
2019-04-04T21:24:53.672Z,40.35
2019-04-04T21:27:42.629Z,37.10
2019-04-04T21:30:32.123Z,26.65
2019-04-04T21:33:21.592Z,30.60
2019-04-04T21:36:11.049Z,27.30
2019-04-04T21:39:00.468Z,30.80
2019-04-04T21:41:49.903Z,27.35
2019-04-04T21:44:39.194Z,28.32
2019-04-04T21:47:28.192Z,28.62
2019-04-04T21:50:17.217Z,28.85
2019-04-04T21:53:06.446Z,27.35
2019-04-04T21:55:55.546Z,30.05
2019-04-04T21:58:44.704Z,28.83
2019-04-04T22:01:34.028Z,28.65
2019-04-04T22:04:23.566Z,31.42
2019-04-04T22:07:12.893Z,26.70
2019-04-04T22:10:02.102Z,27.15
2019-04-04T22:12:51.241Z,39.30
2019-04-04T22:15:40.946Z,32.10
2019-04-04T22:18:29.951Z,32.40
2019-04-04T22:21:18.871Z,36.30
2019-04-04T22:24:08.159Z,29.65
2019-04-04T22:26:57.032Z,26.52
2019-04-04T22:29:46.479Z,23.85
2019-04-04T22:32:35.211Z,24.50
2019-04-04T22:35:24.713Z,24.75
2019-04-04T22:38:13.616Z,32.20
2019-04-04T22:41:02.838Z,25.32
2019-04-04T22:44:02.935Z,24.67
2019-04-04T22:46:43.012Z,24.15
2019-04-04T22:49:31.877Z,23.45
2019-04-04T22:52:20.908Z,28.52
2019-04-04T22:55:10.621Z,24.47
2019-04-04T22:57:59.495Z,26.23
2019-04-04T23:00:49.484Z,28.60
2019-04-04T23:03:38.574Z,27.85
2019-04-04T23:06:27.894Z,28.52
2019-04-04T23:09:17.272Z,31.27
2019-04-04T23:12:06.558Z,30.90
2019-04-04T23:14:55.702Z,33.33
2019-04-04T23:17:45.582Z,33.70
2019-04-04T23:20:35.585Z,33.83
2019-04-04T23:23:24.520Z,34.88
2019-04-04T23:26:13.811Z,35.60
2019-04-04T23:29:03.280Z,35.88
2019-04-04T23:31:52.547Z,41.15
2019-04-04T23:34:42.025Z,40.05
2019-04-04T23:37:30.834Z,50.67
2019-04-04T23:40:20.361Z,38.85
2019-04-04T23:43:09.679Z,39.70
2019-04-04T23:45:59.415Z,38.95
2019-04-04T23:48:48.855Z,39.53
2019-04-04T23:51:38.270Z,44.65
2019-04-04T23:54:27.661Z,45.12
2019-04-04T23:57:17.158Z,43.80
